Decoded Metar for KLAW (LAWTON in OK, USA) (IATA:LAW) | Meteo·Mobile Aviation Weather
aviador You're here:

KLAW Decoded Metar

LAWTON in OK, USA
Report Time2019-04-23 16:00:00
UTC Time2019-04-23 16:25:16
Flight Rules vfr VFR
Wind040° at 08 kt
W.Decomp.*RWY 35: 5.8 kt HW 5.6 kt RCW
Visibility9999 m
Phenomena:N/A
Clouds:Scattered 008 Hf
Expected CloudBase > 1,200 ft AGL from Temp-Dew spread
CeilingNone
Temp17°C (ISA +4)
Dew Point14°C (83% RH)
AAT15.4°C
QNH1017 hPa
Density Alt1,683 ft
Elevation1,106 ft
Report Wrong Elevation
Raw Report
KLAW 231600Z 04008KT 10SM SCT008 17/14 A3003 RMK AO2 LTG DSNT S
T01670144=

Extra information for KLAW:More info

Metar Taf Metar & Taf Last 4 Metars F.Rules Stats Wind Profile Meteogram Temp Stats Airport Information Weather charts Add Link Nearby VenuesMetar ALERT Operation Metar Decoded Social comments

AIRNAV info for KLAW